Time,TemperatureF,DewpointF,PressureIn,WindDirection,WindDirectionDegrees,WindSpeedMPH,WindSpeedGustMPH,Humidity,HourlyPrecipIn,Conditions,Clouds,dailyrainin,SolarRadiationWatts/m^2,SoftwareType,DateUTC
2013-05-01 00:32:00,47.0,44.0,-100.00,SW,229,8.0,15.0,89,0.00,,,0.00,1.000000,,2013-05-01 07:32:00,
2013-05-01 00:41:00,47.0,44.0,-100.00,SW,229,8.0,15.0,89,0.00,,,0.00,1.000000,,2013-05-01 07:41:00,
2013-05-01 00:52:00,47.0,44.0,-100.00,SW,229,8.0,15.0,89,0.00,,,0.00,1.000000,,2013-05-01 07:52:00,
2013-05-01 01:31:00,50.0,40.0,-100.00,WNW,284,9.0,17.0,69,0.00,,,0.00,1.000000,,2013-05-01 08:31:00,
2013-05-01 01:42:00,50.0,40.0,-100.00,WNW,284,9.0,17.0,69,0.00,,,0.00,1.000000,,2013-05-01 08:42:00,
2013-05-01 01:52:00,50.0,40.0,-100.00,WNW,284,9.0,17.0,69,0.00,,,0.00,1.000000,,2013-05-01 08:52:00,
2013-05-01 02:33:00,51.0,38.0,-100.00,West,281,6.0,17.0,61,0.00,,,0.00,1.000000,,2013-05-01 09:33:00,
2013-05-01 02:42:00,51.0,38.0,-100.00,West,281,6.0,17.0,61,0.00,,,0.00,1.000000,,2013-05-01 09:42:00,
2013-05-01 02:52:00,51.0,38.0,-100.00,West,281,6.0,17.0,61,0.00,,,0.00,1.000000,,2013-05-01 09:52:00,
2013-05-01 03:22:00,51.0,36.0,-100.00,WNW,289,8.0,13.0,56,0.00,,,-99.99,1.000000,,2013-05-01 10:22:00,
2013-05-01 03:33:00,51.0,36.0,-100.00,WNW,289,8.0,13.0,56,0.00,,,-99.99,1.000000,,2013-05-01 10:33:00,
2013-05-01 03:42:00,51.0,36.0,-100.00,WNW,289,8.0,13.0,56,0.00,,,-99.99,1.000000,,2013-05-01 10:42:00,
2013-05-01 03:52:00,51.0,36.0,-100.00,WNW,289,8.0,13.0,56,0.00,,,-99.99,1.000000,,2013-05-01 10:52:00,
2013-05-01 04:22:00,53.0,32.0,-100.00,North,7,4.0,13.0,44,0.00,,,0.00,1.000000,,2013-05-01 11:22:00,
2013-05-01 04:32:00,53.0,32.0,-100.00,North,7,4.0,13.0,44,0.00,,,0.00,1.000000,,2013-05-01 11:32:00,
2013-05-01 04:42:00,53.0,32.0,-100.00,North,7,4.0,13.0,44,0.00,,,0.00,1.000000,,2013-05-01 11:42:00,
2013-05-01 04:51:00,53.0,32.0,-100.00,North,7,4.0,13.0,44,0.00,,,0.00,1.000000,,2013-05-01 11:51:00,
2013-05-01 05:31:00,56.0,29.0,-100.00,North,349,8.0,13.0,36,0.00,,,-99.99,1.000000,,2013-05-01 12:31:00,
2013-05-01 05:41:00,56.0,29.0,-100.00,North,349,8.0,13.0,36,0.00,,,-99.99,1.000000,,2013-05-01 12:41:00,
2013-05-01 05:51:00,56.0,29.0,-100.00,North,349,8.0,13.0,36,0.00,,,-99.99,1.000000,,2013-05-01 12:51:00,
2013-05-01 06:31:00,55.0,29.0,-100.00,North,352,8.0,16.0,36,0.00,,,-99.99,1.000000,,2013-05-01 13:31:00,
2013-05-01 06:42:00,55.0,29.0,-100.00,North,352,8.0,16.0,36,0.00,,,-99.99,1.000000,,2013-05-01 13:42:00,
2013-05-01 06:52:00,55.0,29.0,-100.00,North,352,8.0,16.0,36,0.00,,,-99.99,1.000000,,2013-05-01 13:52:00,
2013-05-01 07:21:00,54.0,28.0,-100.00,North,351,10.0,21.0,37,0.00,,,-99.99,37.000000,,2013-05-01 14:21:00,
2013-05-01 07:31:00,54.0,28.0,-100.00,North,351,10.0,21.0,37,0.00,,,-99.99,37.000000,,2013-05-01 14:31:00,
2013-05-01 07:41:00,54.0,28.0,-100.00,North,351,10.0,21.0,37,0.00,,,-99.99,37.000000,,2013-05-01 14:41:00,
2013-05-01 07:51:00,54.0,28.0,-100.00,North,351,10.0,21.0,37,0.00,,,-99.99,37.000000,,2013-05-01 14:51:00,
2013-05-01 08:21:00,57.0,24.0,-100.00,North,355,10.0,21.0,28,0.00,,,0.00,237.000000,,2013-05-01 15:21:00,
2013-05-01 08:33:00,57.0,24.0,-100.00,North,355,10.0,21.0,28,0.00,,,0.00,237.000000,,2013-05-01 15:33:00,
2013-05-01 08:42:00,57.0,24.0,-100.00,North,355,10.0,21.0,28,0.00,,,0.00,237.000000,,2013-05-01 15:42:00,
2013-05-01 08:53:00,57.0,24.0,-100.00,North,355,10.0,21.0,28,0.00,,,0.00,237.000000,,2013-05-01 15:53:00,
2013-05-01 09:31:00,59.0,22.0,-100.00,North,355,10.0,23.0,24,0.00,,,0.00,495.000000,,2013-05-01 16:31:00,
2013-05-01 09:42:00,59.0,22.0,-100.00,North,355,10.0,23.0,24,0.00,,,0.00,495.000000,,2013-05-01 16:42:00,
2013-05-01 09:53:00,59.0,22.0,-100.00,North,355,10.0,23.0,24,0.00,,,0.00,495.000000,,2013-05-01 16:53:00,
2013-05-01 10:21:00,62.0,26.0,-100.00,North,353,9.0,21.0,25,0.00,,,0.00,723.000000,,2013-05-01 17:21:00,
2013-05-01 10:31:00,62.0,26.0,-100.00,North,353,9.0,21.0,25,0.00,,,0.00,723.000000,,2013-05-01 17:31:00,
2013-05-01 10:42:00,62.0,26.0,-100.00,North,353,9.0,21.0,25,0.00,,,0.00,723.000000,,2013-05-01 17:42:00,
2013-05-01 10:52:00,62.0,26.0,-100.00,North,353,9.0,21.0,25,0.00,,,0.00,723.000000,,2013-05-01 17:52:00,
2013-05-01 11:32:00,66.0,12.0,-100.00,North,11,7.0,22.0,12,0.00,,,0.00,524.000000,,2013-05-01 18:32:00,
2013-05-01 11:41:00,66.0,12.0,-100.00,North,11,7.0,22.0,12,0.00,,,0.00,524.000000,,2013-05-01 18:41:00,
2013-05-01 11:52:00,66.0,12.0,-100.00,North,11,7.0,22.0,12,0.00,,,0.00,524.000000,,2013-05-01 18:52:00,
2013-05-01 12:22:00,70.0,6.0,-100.00,NNE,17,7.0,22.0,8,0.00,,,0.00,652.000000,,2013-05-01 19:22:00,
2013-05-01 12:32:00,70.0,6.0,-100.00,NNE,17,7.0,22.0,8,0.00,,,0.00,652.000000,,2013-05-01 19:32:00,
2013-05-01 12:42:00,70.0,6.0,-100.00,NNE,17,7.0,22.0,8,0.00,,,0.00,652.000000,,2013-05-01 19:42:00,
2013-05-01 12:52:00,70.0,6.0,-100.00,NNE,17,7.0,22.0,8,0.00,,,0.00,652.000000,,2013-05-01 19:52:00,
2013-05-01 13:21:00,71.0,4.0,-100.00,North,11,8.0,25.0,7,0.00,,,0.00,1135.000000,,2013-05-01 20:21:00,
2013-05-01 13:31:00,71.0,4.0,-100.00,North,11,8.0,25.0,7,0.00,,,0.00,1135.000000,,2013-05-01 20:31:00,
2013-05-01 13:42:00,71.0,4.0,-100.00,North,11,8.0,25.0,7,0.00,,,0.00,1135.000000,,2013-05-01 20:42:00,
2013-05-01 13:52:00,71.0,4.0,-100.00,North,11,8.0,25.0,7,0.00,,,0.00,1135.000000,,2013-05-01 20:52:00,
2013-05-01 14:22:00,73.0,2.0,-100.00,North,11,7.0,21.0,6,0.00,,,0.00,1135.000000,,2013-05-01 21:22:00,
2013-05-01 14:32:00,73.0,2.0,-100.00,North,11,7.0,21.0,6,0.00,,,0.00,1135.000000,,2013-05-01 21:32:00,
2013-05-01 14:43:00,73.0,2.0,-100.00,North,11,7.0,21.0,6,0.00,,,0.00,1135.000000,,2013-05-01 21:43:00,
2013-05-01 14:52:00,73.0,2.0,-100.00,North,11,7.0,21.0,6,0.00,,,0.00,1135.000000,,2013-05-01 21:52:00,
2013-05-01 15:23:00,75.0,3.0,-100.00,North,359,6.0,24.0,6,0.00,,,0.00,1071.000000,,2013-05-01 22:23:00,
2013-05-01 15:33:00,75.0,3.0,-100.00,North,359,6.0,24.0,6,0.00,,,0.00,1071.000000,,2013-05-01 22:33:00,
2013-05-01 15:42:00,75.0,3.0,-100.00,North,359,6.0,24.0,6,0.00,,,0.00,1071.000000,,2013-05-01 22:42:00,
2013-05-01 15:52:00,75.0,3.0,-100.00,North,359,6.0,24.0,6,0.00,,,0.00,1071.000000,,2013-05-01 22:52:00,
2013-05-01 16:32:00,74.0,3.0,-100.00,NE,42,6.0,19.0,6,0.00,,,0.00,933.000000,,2013-05-01 23:32:00,
2013-05-01 16:42:00,74.0,3.0,-100.00,NE,42,6.0,19.0,6,0.00,,,0.00,933.000000,,2013-05-01 23:42:00,
2013-05-01 16:52:00,74.0,3.0,-100.00,NE,42,6.0,19.0,6,0.00,,,0.00,933.000000,,2013-05-01 23:52:00,
2013-05-01 17:21:00,73.0,-2.0,-100.00,ENE,57,7.0,23.0,5,0.00,,,0.00,728.000000,,2013-05-02 00:21:00,
2013-05-01 17:32:00,73.0,-2.0,-100.00,ENE,57,7.0,23.0,5,0.00,,,0.00,728.000000,,2013-05-02 00:32:00,
2013-05-01 17:41:00,73.0,-2.0,-100.00,ENE,57,7.0,23.0,5,0.00,,,0.00,728.000000,,2013-05-02 00:41:00,
2013-05-01 17:52:00,73.0,-2.0,-100.00,ENE,57,7.0,23.0,5,0.00,,,0.00,728.000000,,2013-05-02 00:52:00,
2013-05-01 18:32:00,71.0,-3.0,-100.00,NNE,14,5.0,18.0,5,0.00,,,0.00,479.000000,,2013-05-02 01:32:00,
2013-05-01 18:42:00,71.0,-3.0,-100.00,NNE,14,5.0,18.0,5,0.00,,,0.00,479.000000,,2013-05-02 01:42:00,
2013-05-01 18:52:00,71.0,-3.0,-100.00,NNE,14,5.0,18.0,5,0.00,,,0.00,479.000000,,2013-05-02 01:52:00,
2013-05-01 19:21:00,68.0,-5.0,-100.00,North,6,6.0,15.0,5,0.00,,,-99.99,237.000000,,2013-05-02 02:21:00,
2013-05-01 19:32:00,68.0,-5.0,-100.00,North,6,6.0,15.0,5,0.00,,,-99.99,237.000000,,2013-05-02 02:32:00,
2013-05-01 19:42:00,68.0,-5.0,-100.00,North,6,6.0,15.0,5,0.00,,,-99.99,237.000000,,2013-05-02 02:42:00,
2013-05-01 19:51:00,68.0,-5.0,-100.00,North,6,6.0,15.0,5,0.00,,,-99.99,237.000000,,2013-05-02 02:51:00,
2013-05-01 20:22:00,64.0,-13.0,-100.00,North,1,5.0,19.0,4,0.00,,,0.00,26.000000,,2013-05-02 03:22:00,
2013-05-01 20:42:00,64.0,-13.0,-100.00,North,1,5.0,19.0,4,0.00,,,0.00,26.000000,,2013-05-02 03:42:00,
2013-05-01 20:52:00,64.0,-13.0,-100.00,North,1,5.0,19.0,4,0.00,,,0.00,26.000000,,2013-05-02 03:52:00,
2013-05-01 21:23:00,63.0,-13.0,-100.00,NE,45,7.0,18.0,4,0.00,,,0.00,1.000000,,2013-05-02 04:23:00,
2013-05-01 21:33:00,63.0,-13.0,-100.00,NE,45,7.0,18.0,4,0.00,,,0.00,1.000000,,2013-05-02 04:33:00,
2013-05-01 21:42:00,63.0,-13.0,-100.00,NE,45,7.0,18.0,4,0.00,,,0.00,1.000000,,2013-05-02 04:42:00,
2013-05-01 21:52:00,63.0,-13.0,-100.00,NE,45,7.0,18.0,4,0.00,,,0.00,1.000000,,2013-05-02 04:52:00,
2013-05-01 22:32:00,62.0,-20.0,-100.00,NE,52,7.0,17.0,3,0.00,,,0.00,1.000000,,2013-05-02 05:32:00,
2013-05-01 22:42:00,62.0,-20.0,-100.00,NE,52,7.0,17.0,3,0.00,,,0.00,1.000000,,2013-05-02 05:42:00,
2013-05-01 22:51:00,62.0,-20.0,-100.00,NE,52,7.0,17.0,3,0.00,,,0.00,1.000000,,2013-05-02 05:51:00,
2013-05-01 23:31:00,61.0,-20.0,-100.00,NNE,28,6.0,18.0,3,0.00,,,0.00,1.000000,,2013-05-02 06:31:00,
2013-05-01 23:42:00,61.0,-20.0,-100.00,NNE,28,6.0,18.0,3,0.00,,,0.00,1.000000,,2013-05-02 06:42:00,
2013-05-01 23:52:00,61.0,-20.0,-100.00,NNE,28,6.0,18.0,3,0.00,,,0.00,1.000000,,2013-05-02 06:52:00,